sensor_id;sensor_type;location;lat;lon;timestamp;P1;durP1;ratioP1;P2;durP2;ratioP2
56860;SDS011;42744;51.094;3.490;2024-01-15T00:00:50;8.80;;;1.87;;
56860;SDS011;42744;51.094;3.490;2024-01-15T00:03:17;4.43;;;1.97;;
56860;SDS011;42744;51.094;3.490;2024-01-15T00:05:43;4.03;;;2.00;;
56860;SDS011;42744;51.094;3.490;2024-01-15T00:08:09;8.17;;;2.20;;
56860;SDS011;42744;51.094;3.490;2024-01-15T00:10:36;12.63;;;2.47;;
56860;SDS011;42744;51.094;3.490;2024-01-15T00:13:02;5.50;;;2.10;;
56860;SDS011;42744;51.094;3.490;2024-01-15T00:15:29;6.20;;;1.93;;
56860;SDS011;42744;51.094;3.490;2024-01-15T00:17:55;4.93;;;2.20;;
56860;SDS011;42744;51.094;3.490;2024-01-15T00:20:22;10.40;;;2.50;;
56860;SDS011;42744;51.094;3.490;2024-01-15T00:22:48;7.87;;;2.23;;
56860;SDS011;42744;51.094;3.490;2024-01-15T00:25:14;4.57;;;2.03;;
56860;SDS011;42744;51.094;3.490;2024-01-15T00:27:40;2.90;;;2.10;;
56860;SDS011;42744;51.094;3.490;2024-01-15T00:30:07;6.87;;;2.17;;
56860;SDS011;42744;51.094;3.490;2024-01-15T00:32:34;4.77;;;2.10;;
56860;SDS011;42744;51.094;3.490;2024-01-15T00:35:00;4.17;;;1.87;;
56860;SDS011;42744;51.094;3.490;2024-01-15T00:37:29;8.13;;;2.63;;
56860;SDS011;42744;51.094;3.490;2024-01-15T00:39:56;4.93;;;1.90;;
56860;SDS011;42744;51.094;3.490;2024-01-15T00:42:22;5.10;;;2.00;;
56860;SDS011;42744;51.094;3.490;2024-01-15T00:44:48;7.90;;;2.33;;
56860;SDS011;42744;51.094;3.490;2024-01-15T00:47:15;6.80;;;2.30;;
56860;SDS011;42744;51.094;3.490;2024-01-15T00:49:43;6.00;;;2.63;;
56860;SDS011;42744;51.094;3.490;2024-01-15T00:52:09;7.10;;;2.00;;
56860;SDS011;42744;51.094;3.490;2024-01-15T00:54:36;6.57;;;2.73;;
56860;SDS011;42744;51.094;3.490;2024-01-15T00:57:03;4.70;;;3.50;;
56860;SDS011;42744;51.094;3.490;2024-01-15T00:59:29;3.20;;;2.20;;
56860;SDS011;42744;51.094;3.490;2024-01-15T01:01:56;4.57;;;2.40;;
56860;SDS011;42744;51.094;3.490;2024-01-15T01:04:22;8.73;;;2.70;;
56860;SDS011;42744;51.094;3.490;2024-01-15T01:06:48;6.83;;;2.93;;
56860;SDS011;42744;51.094;3.490;2024-01-15T01:09:15;5.07;;;2.60;;
56860;SDS011;42744;51.094;3.490;2024-01-15T01:11:41;4.37;;;2.43;;
56860;SDS011;42744;51.094;3.490;2024-01-15T01:14:07;4.97;;;2.43;;
56860;SDS011;42744;51.094;3.490;2024-01-15T01:16:34;7.70;;;2.63;;
56860;SDS011;42744;51.094;3.490;2024-01-15T01:19:05;7.60;;;3.00;;
56860;SDS011;42744;51.094;3.490;2024-01-15T01:21:32;10.50;;;3.37;;
56860;SDS011;42744;51.094;3.490;2024-01-15T01:24:03;4.20;;;2.53;;
56860;SDS011;42744;51.094;3.490;2024-01-15T01:26:29;6.73;;;2.60;;
56860;SDS011;42744;51.094;3.490;2024-01-15T01:28:56;4.77;;;2.20;;
56860;SDS011;42744;51.094;3.490;2024-01-15T01:31:23;5.80;;;2.43;;
56860;SDS011;42744;51.094;3.490;2024-01-15T01:33:49;4.33;;;2.50;;
56860;SDS011;42744;51.094;3.490;2024-01-15T01:36:16;6.50;;;2.03;;
56860;SDS011;42744;51.094;3.490;2024-01-15T01:38:42;5.43;;;2.60;;
56860;SDS011;42744;51.094;3.490;2024-01-15T01:41:08;5.87;;;2.00;;
56860;SDS011;42744;51.094;3.490;2024-01-15T01:43:35;6.93;;;2.20;;
56860;SDS011;42744;51.094;3.490;2024-01-15T01:46:02;7.43;;;2.10;;
56860;SDS011;42744;51.094;3.490;2024-01-15T01:48:29;5.57;;;1.90;;
56860;SDS011;42744;51.094;3.490;2024-01-15T01:50:59;8.10;;;2.30;;
56860;SDS011;42744;51.094;3.490;2024-01-15T01:53:29;9.53;;;3.23;;
56860;SDS011;42744;51.094;3.490;2024-01-15T01:55:57;3.73;;;1.80;;
56860;SDS011;42744;51.094;3.490;2024-01-15T01:58:24;8.30;;;2.30;;
56860;SDS011;42744;51.094;3.490;2024-01-15T02:00:51;4.13;;;2.50;;
56860;SDS011;42744;51.094;3.490;2024-01-15T02:03:18;6.67;;;2.50;;
56860;SDS011;42744;51.094;3.490;2024-01-15T02:05:45;5.07;;;2.20;;
56860;SDS011;42744;51.094;3.490;2024-01-15T02:08:14;6.87;;;2.13;;
56860;SDS011;42744;51.094;3.490;2024-01-15T02:10:44;7.90;;;2.20;;
56860;SDS011;42744;51.094;3.490;2024-01-15T02:13:10;6.27;;;2.37;;
56860;SDS011;42744;51.094;3.490;2024-01-15T02:15:37;6.97;;;2.60;;
56860;SDS011;42744;51.094;3.490;2024-01-15T02:18:07;9.07;;;2.63;;
56860;SDS011;42744;51.094;3.490;2024-01-15T02:20:33;6.23;;;2.67;;
56860;SDS011;42744;51.094;3.490;2024-01-15T02:23:13;8.77;;;2.50;;
56860;SDS011;42744;51.094;3.490;2024-01-15T02:25:41;5.73;;;2.63;;
56860;SDS011;42744;51.094;3.490;2024-01-15T02:28:11;9.10;;;2.83;;
56860;SDS011;42744;51.094;3.490;2024-01-15T02:30:42;8.13;;;2.67;;
56860;SDS011;42744;51.094;3.490;2024-01-15T02:33:09;4.80;;;2.60;;
56860;SDS011;42744;51.094;3.490;2024-01-15T02:35:36;8.37;;;2.90;;
56860;SDS011;42744;51.094;3.490;2024-01-15T02:38:03;8.87;;;2.90;;
56860;SDS011;42744;51.094;3.490;2024-01-15T02:40:30;7.17;;;2.53;;
56860;SDS011;42744;51.094;3.490;2024-01-15T02:42:57;5.47;;;2.27;;
56860;SDS011;42744;51.094;3.490;2024-01-15T02:45:23;6.57;;;3.00;;
56860;SDS011;42744;51.094;3.490;2024-01-15T02:47:50;4.03;;;2.23;;
56860;SDS011;42744;51.094;3.490;2024-01-15T02:50:16;5.00;;;2.17;;
56860;SDS011;42744;51.094;3.490;2024-01-15T02:52:43;4.50;;;2.40;;
56860;SDS011;42744;51.094;3.490;2024-01-15T02:55:09;9.10;;;2.17;;
56860;SDS011;42744;51.094;3.490;2024-01-15T02:57:36;6.67;;;2.30;;
56860;SDS011;42744;51.094;3.490;2024-01-15T03:00:02;3.80;;;2.33;;
56860;SDS011;42744;51.094;3.490;2024-01-15T03:02:29;7.37;;;2.30;;
56860;SDS011;42744;51.094;3.490;2024-01-15T03:04:57;7.63;;;2.53;;
56860;SDS011;42744;51.094;3.490;2024-01-15T03:07:23;5.30;;;1.80;;
56860;SDS011;42744;51.094;3.490;2024-01-15T03:09:50;11.30;;;2.33;;
56860;SDS011;42744;51.094;3.490;2024-01-15T03:12:16;4.60;;;1.70;;
56860;SDS011;42744;51.094;3.490;2024-01-15T03:14:44;6.60;;;2.40;;
56860;SDS011;42744;51.094;3.490;2024-01-15T03:17:10;5.00;;;1.83;;
56860;SDS011;42744;51.094;3.490;2024-01-15T03:19:37;7.07;;;2.10;;
56860;SDS011;42744;51.094;3.490;2024-01-15T03:22:04;9.80;;;1.97;;
56860;SDS011;42744;51.094;3.490;2024-01-15T03:24:31;7.40;;;1.90;;
56860;SDS011;42744;51.094;3.490;2024-01-15T03:26:57;8.17;;;2.00;;
56860;SDS011;42744;51.094;3.490;2024-01-15T03:29:25;7.83;;;2.33;;
56860;SDS011;42744;51.094;3.490;2024-01-15T03:31:52;3.43;;;2.00;;
56860;SDS011;42744;51.094;3.490;2024-01-15T03:34:18;4.73;;;2.20;;
56860;SDS011;42744;51.094;3.490;2024-01-15T03:36:45;6.47;;;2.37;;
56860;SDS011;42744;51.094;3.490;2024-01-15T03:39:14;8.80;;;2.47;;
56860;SDS011;42744;51.094;3.490;2024-01-15T03:41:40;5.77;;;1.70;;
56860;SDS011;42744;51.094;3.490;2024-01-15T03:44:07;8.93;;;1.53;;
56860;SDS011;42744;51.094;3.490;2024-01-15T03:46:33;8.90;;;1.80;;
56860;SDS011;42744;51.094;3.490;2024-01-15T03:48:59;10.63;;;2.00;;
56860;SDS011;42744;51.094;3.490;2024-01-15T03:51:29;4.63;;;1.37;;
56860;SDS011;42744;51.094;3.490;2024-01-15T03:53:55;10.60;;;1.40;;
56860;SDS011;42744;51.094;3.490;2024-01-15T03:56:21;9.27;;;1.60;;
56860;SDS011;42744;51.094;3.490;2024-01-15T03:58:48;5.23;;;1.20;;
56860;SDS011;42744;51.094;3.490;2024-01-15T04:01:14;4.37;;;1.17;;
56860;SDS011;42744;51.094;3.490;2024-01-15T04:03:41;6.00;;;1.40;;
56860;SDS011;42744;51.094;3.490;2024-01-15T04:06:07;4.43;;;1.20;;
56860;SDS011;42744;51.094;3.490;2024-01-15T04:08:33;5.40;;;1.60;;
56860;SDS011;42744;51.094;3.490;2024-01-15T04:11:00;3.17;;;1.37;;
56860;SDS011;42744;51.094;3.490;2024-01-15T04:13:27;4.87;;;1.33;;
56860;SDS011;42744;51.094;3.490;2024-01-15T04:15:53;9.93;;;1.53;;
56860;SDS011;42744;51.094;3.490;2024-01-15T04:18:19;5.70;;;1.60;;
56860;SDS011;42744;51.094;3.490;2024-01-15T04:20:49;8.63;;;1.70;;
56860;SDS011;42744;51.094;3.490;2024-01-15T04:23:15;4.73;;;1.73;;
56860;SDS011;42744;51.094;3.490;2024-01-15T04:25:41;9.77;;;1.90;;
56860;SDS011;42744;51.094;3.490;2024-01-15T04:28:11;4.80;;;1.43;;
56860;SDS011;42744;51.094;3.490;2024-01-15T04:30:37;5.50;;;1.57;;
56860;SDS011;42744;51.094;3.490;2024-01-15T04:33:04;5.97;;;1.03;;
56860;SDS011;42744;51.094;3.490;2024-01-15T04:35:30;6.83;;;1.80;;
56860;SDS011;42744;51.094;3.490;2024-01-15T04:37:56;7.83;;;1.50;;
56860;SDS011;42744;51.094;3.490;2024-01-15T04:40:23;5.47;;;1.83;;
56860;SDS011;42744;51.094;3.490;2024-01-15T04:42:54;7.60;;;1.87;;
56860;SDS011;42744;51.094;3.490;2024-01-15T04:45:20;5.47;;;1.50;;
56860;SDS011;42744;51.094;3.490;2024-01-15T04:47:54;5.33;;;1.30;;
56860;SDS011;42744;51.094;3.490;2024-01-15T04:50:23;5.17;;;1.33;;
56860;SDS011;42744;51.094;3.490;2024-01-15T04:52:50;7.70;;;1.77;;
56860;SDS011;42744;51.094;3.490;2024-01-15T04:55:17;5.53;;;1.83;;
56860;SDS011;42744;51.094;3.490;2024-01-15T04:57:43;6.27;;;1.43;;
56860;SDS011;42744;51.094;3.490;2024-01-15T05:00:09;12.20;;;2.00;;
56860;SDS011;42744;51.094;3.490;2024-01-15T05:02:36;7.40;;;2.43;;
56860;SDS011;42744;51.094;3.490;2024-01-15T05:05:03;7.33;;;2.10;;
56860;SDS011;42744;51.094;3.490;2024-01-15T05:07:29;6.43;;;1.80;;
56860;SDS011;42744;51.094;3.490;2024-01-15T05:09:56;10.80;;;1.77;;
56860;SDS011;42744;51.094;3.490;2024-01-15T05:12:22;8.17;;;1.70;;
56860;SDS011;42744;51.094;3.490;2024-01-15T05:14:48;10.47;;;1.97;;
56860;SDS011;42744;51.094;3.490;2024-01-15T05:17:14;7.83;;;1.40;;
56860;SDS011;42744;51.094;3.490;2024-01-15T05:19:41;9.53;;;1.40;;
56860;SDS011;42744;51.094;3.490;2024-01-15T05:22:07;5.70;;;1.57;;
56860;SDS011;42744;51.094;3.490;2024-01-15T05:24:34;4.67;;;1.33;;
56860;SDS011;42744;51.094;3.490;2024-01-15T05:27:00;6.33;;;1.53;;
56860;SDS011;42744;51.094;3.490;2024-01-15T05:29:26;10.43;;;1.50;;
56860;SDS011;42744;51.094;3.490;2024-01-15T05:31:53;6.87;;;1.10;;
56860;SDS011;42744;51.094;3.490;2024-01-15T05:34:20;12.03;;;1.50;;
56860;SDS011;42744;51.094;3.490;2024-01-15T05:36:46;5.13;;;1.40;;
56860;SDS011;42744;51.094;3.490;2024-01-15T05:39:13;7.17;;;1.30;;
56860;SDS011;42744;51.094;3.490;2024-01-15T05:41:39;4.77;;;1.03;;
56860;SDS011;42744;51.094;3.490;2024-01-15T05:44:06;9.23;;;1.40;;
56860;SDS011;42744;51.094;3.490;2024-01-15T05:46:32;11.00;;;1.47;;
56860;SDS011;42744;51.094;3.490;2024-01-15T05:48:58;7.60;;;1.77;;
56860;SDS011;42744;51.094;3.490;2024-01-15T05:51:25;9.60;;;2.43;;
56860;SDS011;42744;51.094;3.490;2024-01-15T05:53:51;5.90;;;1.00;;
56860;SDS011;42744;51.094;3.490;2024-01-15T05:56:18;7.90;;;1.27;;
56860;SDS011;42744;51.094;3.490;2024-01-15T05:58:47;4.37;;;1.10;;
56860;SDS011;42744;51.094;3.490;2024-01-15T06:01:14;9.50;;;1.77;;
56860;SDS011;42744;51.094;3.490;2024-01-15T06:03:41;7.97;;;1.50;;
56860;SDS011;42744;51.094;3.490;2024-01-15T06:06:08;8.87;;;1.73;;
56860;SDS011;42744;51.094;3.490;2024-01-15T06:08:34;6.53;;;1.93;;
56860;SDS011;42744;51.094;3.490;2024-01-15T06:11:01;9.53;;;2.77;;
56860;SDS011;42744;51.094;3.490;2024-01-15T06:13:28;8.50;;;1.93;;
56860;SDS011;42744;51.094;3.490;2024-01-15T06:15:54;8.33;;;1.43;;
56860;SDS011;42744;51.094;3.490;2024-01-15T06:18:20;8.57;;;1.40;;
56860;SDS011;42744;51.094;3.490;2024-01-15T06:20:49;6.20;;;0.90;;
56860;SDS011;42744;51.094;3.490;2024-01-15T06:23:15;4.50;;;1.10;;
56860;SDS011;42744;51.094;3.490;2024-01-15T06:25:42;5.23;;;1.53;;
56860;SDS011;42744;51.094;3.490;2024-01-15T06:28:08;5.30;;;1.23;;
56860;SDS011;42744;51.094;3.490;2024-01-15T06:30:35;10.97;;;1.90;;
56860;SDS011;42744;51.094;3.490;2024-01-15T06:33:01;4.43;;;1.40;;
56860;SDS011;42744;51.094;3.490;2024-01-15T06:35:27;3.17;;;0.97;;
56860;SDS011;42744;51.094;3.490;2024-01-15T06:37:53;6.57;;;1.50;;
56860;SDS011;42744;51.094;3.490;2024-01-15T06:40:20;4.00;;;1.10;;
56860;SDS011;42744;51.094;3.490;2024-01-15T06:42:46;9.47;;;1.37;;
56860;SDS011;42744;51.094;3.490;2024-01-15T06:45:12;3.83;;;1.40;;
56860;SDS011;42744;51.094;3.490;2024-01-15T06:47:39;6.33;;;1.23;;
56860;SDS011;42744;51.094;3.490;2024-01-15T06:50:05;9.43;;;1.27;;
56860;SDS011;42744;51.094;3.490;2024-01-15T06:52:32;5.90;;;1.13;;
56860;SDS011;42744;51.094;3.490;2024-01-15T06:54:59;8.50;;;1.07;;
56860;SDS011;42744;51.094;3.490;2024-01-15T06:57:25;4.67;;;0.90;;
56860;SDS011;42744;51.094;3.490;2024-01-15T06:59:51;4.20;;;1.23;;
56860;SDS011;42744;51.094;3.490;2024-01-15T07:02:18;3.90;;;1.20;;
56860;SDS011;42744;51.094;3.490;2024-01-15T07:04:44;6.47;;;1.17;;
56860;SDS011;42744;51.094;3.490;2024-01-15T07:07:10;8.67;;;1.43;;
56860;SDS011;42744;51.094;3.490;2024-01-15T07:09:37;7.87;;;1.80;;
56860;SDS011;42744;51.094;3.490;2024-01-15T07:12:03;10.23;;;2.10;;
56860;SDS011;42744;51.094;3.490;2024-01-15T07:14:29;7.40;;;1.30;;
56860;SDS011;42744;51.094;3.490;2024-01-15T07:16:56;7.20;;;1.60;;
56860;SDS011;42744;51.094;3.490;2024-01-15T07:19:22;4.30;;;1.33;;
56860;SDS011;42744;51.094;3.490;2024-01-15T07:21:48;5.20;;;1.00;;
56860;SDS011;42744;51.094;3.490;2024-01-15T07:24:15;3.27;;;1.27;;
56860;SDS011;42744;51.094;3.490;2024-01-15T07:26:41;7.47;;;1.20;;
56860;SDS011;42744;51.094;3.490;2024-01-15T07:29:07;9.27;;;1.03;;
56860;SDS011;42744;51.094;3.490;2024-01-15T07:31:34;5.43;;;1.33;;
56860;SDS011;42744;51.094;3.490;2024-01-15T07:34:00;7.40;;;1.10;;
56860;SDS011;42744;51.094;3.490;2024-01-15T07:36:26;5.80;;;1.40;;
56860;SDS011;42744;51.094;3.490;2024-01-15T07:38:53;7.27;;;1.20;;
56860;SDS011;42744;51.094;3.490;2024-01-15T07:41:19;5.30;;;1.07;;
56860;SDS011;42744;51.094;3.490;2024-01-15T07:43:45;9.57;;;1.60;;
56860;SDS011;42744;51.094;3.490;2024-01-15T07:46:12;3.77;;;1.00;;
56860;SDS011;42744;51.094;3.490;2024-01-15T07:48:38;5.13;;;1.37;;
56860;SDS011;42744;51.094;3.490;2024-01-15T07:51:04;7.63;;;1.33;;
56860;SDS011;42744;51.094;3.490;2024-01-15T07:53:31;9.20;;;1.53;;
56860;SDS011;42744;51.094;3.490;2024-01-15T07:55:57;9.07;;;1.37;;
56860;SDS011;42744;51.094;3.490;2024-01-15T07:58:24;5.40;;;1.70;;
56860;SDS011;42744;51.094;3.490;2024-01-15T08:00:50;8.17;;;1.17;;
56860;SDS011;42744;51.094;3.490;2024-01-15T08:03:17;8.27;;;1.37;;
56860;SDS011;42744;51.094;3.490;2024-01-15T08:05:44;5.57;;;1.00;;
56860;SDS011;42744;51.094;3.490;2024-01-15T08:08:10;4.50;;;1.10;;
56860;SDS011;42744;51.094;3.490;2024-01-15T08:10:37;5.87;;;1.43;;
56860;SDS011;42744;51.094;3.490;2024-01-15T08:13:03;6.83;;;1.20;;
56860;SDS011;42744;51.094;3.490;2024-01-15T08:15:29;5.90;;;1.27;;
56860;SDS011;42744;51.094;3.490;2024-01-15T08:17:56;7.33;;;1.30;;
56860;SDS011;42744;51.094;3.490;2024-01-15T08:20:22;7.37;;;1.10;;
56860;SDS011;42744;51.094;3.490;2024-01-15T08:22:49;5.70;;;1.37;;
56860;SDS011;42744;51.094;3.490;2024-01-15T08:25:15;8.17;;;1.10;;
56860;SDS011;42744;51.094;3.490;2024-01-15T08:27:41;2.20;;;0.80;;
56860;SDS011;42744;51.094;3.490;2024-01-15T08:30:08;4.57;;;0.93;;
56860;SDS011;42744;51.094;3.490;2024-01-15T08:32:35;5.70;;;1.73;;
56860;SDS011;42744;51.094;3.490;2024-01-15T08:35:06;6.37;;;1.20;;
56860;SDS011;42744;51.094;3.490;2024-01-15T08:37:32;6.70;;;1.37;;
56860;SDS011;42744;51.094;3.490;2024-01-15T08:40:01;8.20;;;1.50;;
56860;SDS011;42744;51.094;3.490;2024-01-15T08:42:29;3.83;;;0.83;;
56860;SDS011;42744;51.094;3.490;2024-01-15T08:44:55;7.57;;;1.07;;
56860;SDS011;42744;51.094;3.490;2024-01-15T08:47:21;2.73;;;0.80;;
56860;SDS011;42744;51.094;3.490;2024-01-15T08:49:48;6.03;;;0.90;;
56860;SDS011;42744;51.094;3.490;2024-01-15T08:52:14;6.80;;;1.13;;
56860;SDS011;42744;51.094;3.490;2024-01-15T08:54:41;6.67;;;0.73;;
56860;SDS011;42744;51.094;3.490;2024-01-15T08:57:07;6.63;;;1.43;;
56860;SDS011;42744;51.094;3.490;2024-01-15T08:59:34;6.43;;;1.10;;
56860;SDS011;42744;51.094;3.490;2024-01-15T09:02:00;4.67;;;0.83;;
56860;SDS011;42744;51.094;3.490;2024-01-15T09:04:26;6.83;;;1.00;;
56860;SDS011;42744;51.094;3.490;2024-01-15T09:06:53;6.17;;;1.40;;
56860;SDS011;42744;51.094;3.490;2024-01-15T09:09:19;5.53;;;1.70;;
56860;SDS011;42744;51.094;3.490;2024-01-15T09:11:46;7.30;;;1.00;;
56860;SDS011;42744;51.094;3.490;2024-01-15T09:14:12;6.77;;;1.17;;
56860;SDS011;42744;51.094;3.490;2024-01-15T09:16:38;3.67;;;0.90;;
56860;SDS011;42744;51.094;3.490;2024-01-15T09:19:05;6.27;;;1.10;;
56860;SDS011;42744;51.094;3.490;2024-01-15T09:21:31;3.27;;;1.10;;
56860;SDS011;42744;51.094;3.490;2024-01-15T09:23:58;6.57;;;1.03;;
56860;SDS011;42744;51.094;3.490;2024-01-15T09:26:24;6.57;;;1.00;;
56860;SDS011;42744;51.094;3.490;2024-01-15T09:28:51;4.33;;;1.13;;
56860;SDS011;42744;51.094;3.490;2024-01-15T09:31:18;5.73;;;1.93;;
56860;SDS011;42744;51.094;3.490;2024-01-15T09:33:45;5.97;;;1.80;;
56860;SDS011;42744;51.094;3.490;2024-01-15T09:36:11;5.80;;;1.73;;
56860;SDS011;42744;51.094;3.490;2024-01-15T09:38:40;6.93;;;1.63;;
56860;SDS011;42744;51.094;3.490;2024-01-15T09:41:07;5.23;;;1.10;;
56860;SDS011;42744;51.094;3.490;2024-01-15T09:43:33;7.73;;;1.30;;
56860;SDS011;42744;51.094;3.490;2024-01-15T09:46:00;6.93;;;0.90;;
56860;SDS011;42744;51.094;3.490;2024-01-15T09:48:27;4.10;;;1.23;;
56860;SDS011;42744;51.094;3.490;2024-01-15T09:50:54;11.43;;;1.30;;
56860;SDS011;42744;51.094;3.490;2024-01-15T09:53:23;5.90;;;1.60;;
56860;SDS011;42744;51.094;3.490;2024-01-15T09:55:51;4.60;;;1.57;;
56860;SDS011;42744;51.094;3.490;2024-01-15T09:58:19;4.50;;;1.33;;
56860;SDS011;42744;51.094;3.490;2024-01-15T10:00:47;6.47;;;1.47;;
56860;SDS011;42744;51.094;3.490;2024-01-15T10:03:15;6.40;;;1.87;;
56860;SDS011;42744;51.094;3.490;2024-01-15T10:05:43;11.83;;;2.30;;
56860;SDS011;42744;51.094;3.490;2024-01-15T10:08:09;6.30;;;1.37;;
56860;SDS011;42744;51.094;3.490;2024-01-15T10:10:37;12.90;;;1.73;;
56860;SDS011;42744;51.094;3.490;2024-01-15T10:13:03;6.93;;;1.50;;
56860;SDS011;42744;51.094;3.490;2024-01-15T10:15:33;4.87;;;0.80;;
56860;SDS011;42744;51.094;3.490;2024-01-15T10:18:02;3.87;;;1.07;;
56860;SDS011;42744;51.094;3.490;2024-01-15T10:20:31;2.37;;;1.00;;
56860;SDS011;42744;51.094;3.490;2024-01-15T10:22:58;5.63;;;1.77;;
56860;SDS011;42744;51.094;3.490;2024-01-15T10:25:25;6.47;;;1.77;;
56860;SDS011;42744;51.094;3.490;2024-01-15T10:28:00;8.63;;;1.43;;
56860;SDS011;42744;51.094;3.490;2024-01-15T10:30:28;6.03;;;1.13;;
56860;SDS011;42744;51.094;3.490;2024-01-15T10:32:59;9.33;;;1.50;;
56860;SDS011;42744;51.094;3.490;2024-01-15T10:35:29;7.10;;;1.37;;
56860;SDS011;42744;51.094;3.490;2024-01-15T10:37:57;4.67;;;0.80;;
56860;SDS011;42744;51.094;3.490;2024-01-15T10:40:26;6.40;;;1.20;;
56860;SDS011;42744;51.094;3.490;2024-01-15T10:42:53;3.43;;;0.97;;
56860;SDS011;42744;51.094;3.490;2024-01-15T10:45:19;5.07;;;1.03;;
56860;SDS011;42744;51.094;3.490;2024-01-15T10:47:46;8.40;;;0.97;;
56860;SDS011;42744;51.094;3.490;2024-01-15T10:50:14;6.20;;;0.90;;
56860;SDS011;42744;51.094;3.490;2024-01-15T10:52:41;7.23;;;1.47;;
56860;SDS011;42744;51.094;3.490;2024-01-15T10:55:09;5.97;;;1.00;;
56860;SDS011;42744;51.094;3.490;2024-01-15T10:57:39;5.17;;;1.03;;
56860;SDS011;42744;51.094;3.490;2024-01-15T11:00:05;5.43;;;1.07;;
56860;SDS011;42744;51.094;3.490;2024-01-15T11:02:32;8.57;;;1.60;;
56860;SDS011;42744;51.094;3.490;2024-01-15T11:05:02;6.13;;;1.00;;
56860;SDS011;42744;51.094;3.490;2024-01-15T11:07:29;4.50;;;0.93;;
56860;SDS011;42744;51.094;3.490;2024-01-15T11:09:56;9.80;;;2.03;;
56860;SDS011;42744;51.094;3.490;2024-01-15T11:12:26;4.40;;;1.10;;
56860;SDS011;42744;51.094;3.490;2024-01-15T11:15:00;4.03;;;0.73;;
56860;SDS011;42744;51.094;3.490;2024-01-15T11:17:34;8.20;;;1.20;;
56860;SDS011;42744;51.094;3.490;2024-01-15T11:20:26;5.00;;;1.10;;
56860;SDS011;42744;51.094;3.490;2024-01-15T11:22:53;5.17;;;0.93;;
56860;SDS011;42744;51.094;3.490;2024-01-15T11:25:22;4.80;;;1.17;;
56860;SDS011;42744;51.094;3.490;2024-01-15T11:27:49;8.13;;;1.80;;
56860;SDS011;42744;51.094;3.490;2024-01-15T11:30:17;9.13;;;1.30;;
56860;SDS011;42744;51.094;3.490;2024-01-15T11:32:45;4.33;;;1.13;;
56860;SDS011;42744;51.094;3.490;2024-01-15T11:35:12;5.63;;;1.00;;
56860;SDS011;42744;51.094;3.490;2024-01-15T11:40:23;8.13;;;1.67;;
56860;SDS011;42744;51.094;3.490;2024-01-15T11:43:06;7.17;;;1.67;;
56860;SDS011;42744;51.094;3.490;2024-01-15T11:45:32;5.87;;;1.10;;
56860;SDS011;42744;51.094;3.490;2024-01-15T11:50:42;11.07;;;1.40;;
56860;SDS011;42744;51.094;3.490;2024-01-15T11:53:36;6.87;;;1.17;;
56860;SDS011;42744;51.094;3.490;2024-01-15T11:56:09;9.47;;;1.60;;
56860;SDS011;42744;51.094;3.490;2024-01-15T11:58:42;6.10;;;1.20;;
56860;SDS011;42744;51.094;3.490;2024-01-15T12:01:10;6.67;;;1.17;;
56860;SDS011;42744;51.094;3.490;2024-01-15T12:03:37;9.03;;;1.70;;
56860;SDS011;42744;51.094;3.490;2024-01-15T12:06:06;5.57;;;0.90;;
56860;SDS011;42744;51.094;3.490;2024-01-15T12:08:32;12.60;;;1.60;;
56860;SDS011;42744;51.094;3.490;2024-01-15T12:10:59;7.40;;;1.63;;
56860;SDS011;42744;51.094;3.490;2024-01-15T12:13:26;4.97;;;1.10;;
56860;SDS011;42744;51.094;3.490;2024-01-15T12:15:54;7.03;;;1.57;;
56860;SDS011;42744;51.094;3.490;2024-01-15T12:18:20;6.93;;;1.60;;
56860;SDS011;42744;51.094;3.490;2024-01-15T12:20:46;12.63;;;1.33;;
56860;SDS011;42744;51.094;3.490;2024-01-15T12:23:13;7.97;;;1.47;;
56860;SDS011;42744;51.094;3.490;2024-01-15T12:25:40;7.07;;;1.50;;
56860;SDS011;42744;51.094;3.490;2024-01-15T12:28:06;6.57;;;1.13;;
56860;SDS011;42744;51.094;3.490;2024-01-15T12:30:33;9.10;;;1.93;;
56860;SDS011;42744;51.094;3.490;2024-01-15T12:33:03;14.43;;;1.80;;
56860;SDS011;42744;51.094;3.490;2024-01-15T12:35:30;5.03;;;1.20;;
56860;SDS011;42744;51.094;3.490;2024-01-15T12:37:57;11.13;;;1.73;;
56860;SDS011;42744;51.094;3.490;2024-01-15T12:40:26;6.27;;;1.20;;
56860;SDS011;42744;51.094;3.490;2024-01-15T12:42:52;4.63;;;1.20;;
56860;SDS011;42744;51.094;3.490;2024-01-15T12:45:18;10.37;;;1.30;;
56860;SDS011;42744;51.094;3.490;2024-01-15T12:47:45;6.47;;;1.43;;
56860;SDS011;42744;51.094;3.490;2024-01-15T12:50:12;4.70;;;1.20;;
56860;SDS011;42744;51.094;3.490;2024-01-15T12:52:42;6.53;;;1.43;;
56860;SDS011;42744;51.094;3.490;2024-01-15T12:55:09;9.63;;;1.13;;
56860;SDS011;42744;51.094;3.490;2024-01-15T12:57:36;6.80;;;1.00;;
56860;SDS011;42744;51.094;3.490;2024-01-15T13:00:03;7.27;;;1.40;;
56860;SDS011;42744;51.094;3.490;2024-01-15T13:02:38;5.83;;;1.40;;
56860;SDS011;42744;51.094;3.490;2024-01-15T13:05:06;9.70;;;1.20;;
56860;SDS011;42744;51.094;3.490;2024-01-15T13:07:34;6.30;;;1.00;;
56860;SDS011;42744;51.094;3.490;2024-01-15T13:10:00;4.63;;;1.03;;
56860;SDS011;42744;51.094;3.490;2024-01-15T13:12:26;9.00;;;1.33;;
56860;SDS011;42744;51.094;3.490;2024-01-15T13:14:53;5.57;;;1.13;;
56860;SDS011;42744;51.094;3.490;2024-01-15T13:17:19;10.00;;;1.23;;
56860;SDS011;42744;51.094;3.490;2024-01-15T13:19:47;8.83;;;1.53;;
56860;SDS011;42744;51.094;3.490;2024-01-15T13:22:14;6.17;;;1.40;;
56860;SDS011;42744;51.094;3.490;2024-01-15T13:24:40;5.50;;;0.97;;
56860;SDS011;42744;51.094;3.490;2024-01-15T13:27:08;7.60;;;1.20;;
56860;SDS011;42744;51.094;3.490;2024-01-15T13:29:34;13.13;;;1.47;;
56860;SDS011;42744;51.094;3.490;2024-01-15T13:32:01;7.50;;;1.53;;
56860;SDS011;42744;51.094;3.490;2024-01-15T13:34:28;6.90;;;1.00;;
56860;SDS011;42744;51.094;3.490;2024-01-15T13:36:54;7.63;;;2.00;;
56860;SDS011;42744;51.094;3.490;2024-01-15T13:39:21;6.00;;;1.20;;
56860;SDS011;42744;51.094;3.490;2024-01-15T13:41:49;9.97;;;1.33;;
56860;SDS011;42744;51.094;3.490;2024-01-15T13:44:15;7.23;;;1.53;;
56860;SDS011;42744;51.094;3.490;2024-01-15T13:46:41;8.00;;;1.67;;
56860;SDS011;42744;51.094;3.490;2024-01-15T13:49:08;7.37;;;1.10;;
56860;SDS011;42744;51.094;3.490;2024-01-15T13:51:37;6.67;;;1.60;;
56860;SDS011;42744;51.094;3.490;2024-01-15T13:54:03;12.20;;;2.10;;
56860;SDS011;42744;51.094;3.490;2024-01-15T13:56:30;9.17;;;1.63;;
56860;SDS011;42744;51.094;3.490;2024-01-15T13:59:00;5.07;;;1.37;;
56860;SDS011;42744;51.094;3.490;2024-01-15T14:01:27;6.07;;;1.60;;
56860;SDS011;42744;51.094;3.490;2024-01-15T14:03:54;5.80;;;1.60;;
56860;SDS011;42744;51.094;3.490;2024-01-15T14:06:20;6.47;;;1.10;;
56860;SDS011;42744;51.094;3.490;2024-01-15T14:08:46;6.50;;;1.40;;
56860;SDS011;42744;51.094;3.490;2024-01-15T14:11:13;7.57;;;1.03;;
56860;SDS011;42744;51.094;3.490;2024-01-15T14:13:39;7.50;;;1.00;;
56860;SDS011;42744;51.094;3.490;2024-01-15T14:16:05;9.37;;;1.70;;
56860;SDS011;42744;51.094;3.490;2024-01-15T14:18:32;8.90;;;1.90;;
56860;SDS011;42744;51.094;3.490;2024-01-15T14:20:58;6.77;;;1.50;;
56860;SDS011;42744;51.094;3.490;2024-01-15T14:23:24;12.13;;;1.73;;
56860;SDS011;42744;51.094;3.490;2024-01-15T14:25:51;5.70;;;1.30;;
56860;SDS011;42744;51.094;3.490;2024-01-15T14:28:18;10.17;;;1.57;;
56860;SDS011;42744;51.094;3.490;2024-01-15T14:30:44;6.17;;;1.23;;
56860;SDS011;42744;51.094;3.490;2024-01-15T14:33:10;5.67;;;1.07;;
56860;SDS011;42744;51.094;3.490;2024-01-15T14:35:37;11.53;;;1.50;;
56860;SDS011;42744;51.094;3.490;2024-01-15T14:38:03;12.50;;;1.33;;
56860;SDS011;42744;51.094;3.490;2024-01-15T14:40:29;9.67;;;2.00;;
56860;SDS011;42744;51.094;3.490;2024-01-15T14:42:56;12.53;;;1.60;;
56860;SDS011;42744;51.094;3.490;2024-01-15T14:45:22;7.40;;;1.57;;
56860;SDS011;42744;51.094;3.490;2024-01-15T14:47:49;7.77;;;1.80;;
56860;SDS011;42744;51.094;3.490;2024-01-15T14:50:15;8.50;;;1.47;;